Nearby METAR Reports

 

KIMT - Iron Mountain, Michigan, USA
Distance from station: 0 29mi, 47km
Updated: Mon, 22-Apr-2019 12:54pm CDT
Overcast
Overcast
 Wind from NE
Wind: NE 10 mph , 17 km/h
Temperature: 52°F , 11°C
Dew Point: 45°F , 7°C
Humidity: 77%
Barometer: 30.01 inHg , 1016.3 hPa
Clouds: Overcast
Visibility: 10 miles , 16 km
Cloud details: Overcast 1400 ft
2019/04/22 17:54 KIMT 221754Z AUTO 05009KT 10SM OVC014 11/07 A3001 RMK AO2 SLP170 60001 T01110072 10117 20050 56028
KMNM - Menominee, Michigan, USA
Distance from station: SE 31mi, 51km
Updated: Mon, 22-Apr-2019 12:56pm CDT
Clear
Clear
 Wind from ENE
Wind: ENE 12 mph , 19 km/h
Temperature: 50°F , 10°C
Wind Chill: 45°F , 7°C
Dew Point: 41°F , 5°C
Humidity: 71%
Barometer: 30.00 inHg , 1015.9 hPa
Clouds: Clear
Visibility: 10 miles , 16 km
2019/04/22 17:56 KMNM 221756Z AUTO 07010KT 10SM CLR 10/05 A3000 RMK AO2 SLP182 60000 T01000050 10100 20056 56019 $
 
KOCQ - Oconto, Wisconsin, USA
Distance from station: SSE 38mi, 61km
Updated: Mon, 22-Apr-2019 12:55pm CDT
Clear
Clear
 Wind from E
Wind: E 9 mph , 15 km/h
Temperature: 52°F , 11°C
Dew Point: 41°F , 5°C
Humidity: 67%
Barometer: 29.98 inHg , 1015.2 hPa
Clouds: Clear
Visibility: 10 miles , 16 km
2019/04/22 17:55 KOCQ 221755Z AUTO 09008KT 10SM CLR 11/05 A2998 RMK AO1 T01070046 10120 20066
KEZS - Shawano Muni, Wisconsin, USA
Distance from station: SSW 48mi, 77km
Updated: Mon, 22-Apr-2019 1:08pm CDT
unable to load KEZS data RC=
unable to load KEZS data RC=
 
 
KAIG - Antigo/Langlade, Wisconsin, USA
Distance from station: WSW 51mi, 82km
Updated: Mon, 22-Apr-2019 12:55pm CDT
Clear
Clear
 Wind from E
Wind: E 7 mph , 11 km/h
Temperature: 63°F , 17°C
Dew Point: 43°F , 6°C
Humidity: 49%
Barometer: 29.95 inHg , 1014.2 hPa
Clouds: Clear
Visibility: 10 miles , 16 km
2019/04/22 17:55 KAIG 221755Z AUTO 09006KT 10SM CLR 17/06 A2995 RMK AO2 T01650057 10167 20063
KSUE - Sturgeon Bay, Wisconsin, USA
Distance from station: SE 51mi, 82km
Updated: Mon, 22-Apr-2019 12:56pm CDT
Clear
Clear
 Wind from NNW
Wind: NNW 9 mph , 15 km/h
Temperature: 54°F , 12°C
Dew Point: 41°F , 5°C
Humidity: 63%
Barometer: 29.98 inHg , 1015.2 hPa
Clouds: Clear
Visibility: 10 miles , 16 km
2019/04/22 17:56 KSUE 221756Z AUTO 34008KT 10SM CLR 12/05 A2998 RMK AO2 SLP175 T01170050 10128 20061 56017
 
KESC - Escanaba, Michigan, USA
Distance from station: ENE 56mi, 90km
Updated: Mon, 22-Apr-2019 12:56pm CDT
Clear
Clear
 Wind from ENE
Wind: ENE 12 mph , 19 km/h
Temperature: 52°F , 11°C
Dew Point: 41°F , 5°C
Humidity: 67%
Barometer: 30.00 inHg , 1015.9 hPa
Clouds: Clear
Visibility: 10 miles , 16 km
2019/04/22 17:56 KESC 221756Z AUTO 07010KT 10SM CLR 11/05 A3000 RMK AO2 SLP186 60000 T01060050 10106 20050 58021
KCLI - Clintonville, Wisconsin, USA
Distance from station: SSW 62mi, 99km
Updated: Mon, 22-Apr-2019 12:55pm CDT
Partly cloudy
Partly cloudy
 Wind from NE
Wind: NE 5 mph , 7 km/h
Temperature: 61°F , 16°C
Dew Point: 39°F , 4°C
Humidity: 45%
Barometer: 29.95 inHg , 1014.2 hPa
Clouds: Partly cloudy
Visibility: 10 miles , 16 km
Cloud details: Partly cloudy 11000 ft
2019/04/22 17:55 KCLI 221755Z AUTO 05004KT 10SM SCT110 16/04 A2995 RMK AO2 T01620043 10162 20065
 
KGRB - Ashwaubenon, Wisconsin, USA
Distance from station: S 63mi, 102km
Updated: Mon, 22-Apr-2019 12:53pm CDT
Clear
Clear
 Wind from NE
Wind: NE 15 mph , 24 km/h
Temperature: 54°F , 12°C
Dew Point: 43°F , 6°C
Humidity: 67%
Barometer: 29.96 inHg , 1014.6 hPa
Clouds: Clear
Visibility: 10 miles , 16 km
2019/04/22 17:53 KGRB 221753Z 04013KT 10SM CLR 12/06 A2996 RMK AO2 SLP149 T01220061 10139 20067 58007
KEGV - Eagle River, Wisconsin, USA
Distance from station: NW 66mi, 107km
Updated: Mon, 22-Apr-2019 12:55pm CDT
Overcast
Overcast
 Wind from NNE
Wind: NNE 13 mph , 20 km/h
Temperature: 46°F , 8°C
Wind Chill: 40°F , 4°C
Dew Point: 43°F , 6°C
Humidity: 87%
Barometer: 30.02 inHg , 1016.6 hPa
Clouds: Overcast
Visibility: 10 miles , 16 km
Cloud details: Overcast 1100 ft
2019/04/22 17:55 KEGV 221755Z AUTO 03011KT 10SM OVC011 08/06 A3002 RMK AO2 T00750055 10086 20042
 
KRHI - Rhinelander, Wisconsin, USA
Distance from station: WNW 68mi, 109km
Updated: Mon, 22-Apr-2019 12:53pm CDT
Mostly cloudy
Mostly cloudy
 Wind from N
Wind: N 7 mph , 11 km/h
Temperature: 55°F , 13°C
Dew Point: 43°F , 6°C
Humidity: 63%
Barometer: 30.00 inHg , 1015.9 hPa
Clouds: Mostly cloudy
Visibility: 10 miles , 16 km
Cloud details: Few Clouds 7500 ft
Mostly cloudy 11000 ft
2019/04/22 17:53 KRHI 221753Z AUTO 01006KT 10SM FEW075 BKN110 13/06 A3000 RMK AO2 SLP165 60000 T01330056 10139 20061 58004
KLNL - Land O Lakes, Wisconsin, USA
Distance from station: NW 74mi, 119km
Updated: Mon, 22-Apr-2019 12:55pm CDT
Overcast
Overcast
 Wind from NNE
Wind: NNE 9 mph , 15 km/h
Temperature: 45°F , 7°C
Wind Chill: 40°F , 4°C
Dew Point: 41°F , 5°C
Humidity: 87%
Barometer: 30.07 inHg , 1018.3 hPa
Clouds: Overcast
Visibility: 10 miles , 16 km
Cloud details: Overcast 900 ft
2019/04/22 17:55 KLNL 221755Z AUTO 03008KT 10SM OVC009 07/05 A3007 RMK AO2 60003 T00650046 10065 20040
 
KSAW - Gwinn/Sawyer, Michigan, USA
Distance from station: NNE 74mi, 120km
Updated: Mon, 22-Apr-2019 12:47pm CDT
Fog, Overcast
Fog, Overcast
 Wind from NNE
Wind: NNE 13 mph , 20 km/h
Temperature: 39°F , 4°C
Wind Chill: 31°F , -1°C
Dew Point: 37°F , 3°C
Humidity: 93%
Barometer: 30.07 inHg , 1018.3 hPa
Summary: Fog
Clouds: Overcast
Visibility: 1/4 mile , 0.4 km
Cloud details: Overcast 200 ft
2019/04/22 17:47 KSAW 221747Z 03011KT 1/4SM FG OVC002 04/03 A3007 RMK VIS 1/4V2